sensor_id;sensor_type;location;lat;lon;timestamp;P1;durP1;ratioP1;P2;durP2;ratioP2
24751;SDS011;27246;52.376;4.628;2022-07-01T00:01:05;2.72;;;0.93;;
24751;SDS011;27246;52.376;4.628;2022-07-01T00:06:06;1.17;;;0.98;;
24751;SDS011;27246;52.376;4.628;2022-07-01T00:11:09;6.72;;;1.55;;
24751;SDS011;27246;52.376;4.628;2022-07-01T00:16:11;2.17;;;1.77;;
24751;SDS011;27246;52.376;4.628;2022-07-01T00:21:12;3.22;;;2.92;;
24751;SDS011;27246;52.376;4.628;2022-07-01T00:26:15;3.58;;;3.17;;
24751;SDS011;27246;52.376;4.628;2022-07-01T00:31:17;4.03;;;3.55;;
24751;SDS011;27246;52.376;4.628;2022-07-01T00:36:18;5.15;;;4.65;;
24751;SDS011;27246;52.376;4.628;2022-07-01T00:41:20;6.25;;;5.65;;
24751;SDS011;27246;52.376;4.628;2022-07-01T00:46:22;6.97;;;6.18;;
24751;SDS011;27246;52.376;4.628;2022-07-01T00:51:26;7.18;;;6.47;;
24751;SDS011;27246;52.376;4.628;2022-07-01T00:56:30;7.90;;;6.88;;
24751;SDS011;27246;52.376;4.628;2022-07-01T01:01:33;7.40;;;6.70;;
24751;SDS011;27246;52.376;4.628;2022-07-01T01:06:35;8.88;;;7.95;;
24751;SDS011;27246;52.376;4.628;2022-07-01T01:11:37;9.88;;;8.48;;
24751;SDS011;27246;52.376;4.628;2022-07-01T01:16:39;10.82;;;8.65;;
24751;SDS011;27246;52.376;4.628;2022-07-01T01:21:41;12.63;;;9.52;;
24751;SDS011;27246;52.376;4.628;2022-07-01T01:26:42;10.85;;;9.73;;
24751;SDS011;27246;52.376;4.628;2022-07-01T01:31:44;10.80;;;9.68;;
24751;SDS011;27246;52.376;4.628;2022-07-01T01:36:46;13.18;;;11.57;;
24751;SDS011;27246;52.376;4.628;2022-07-01T01:41:47;13.85;;;10.82;;
24751;SDS011;27246;52.376;4.628;2022-07-01T01:46:49;13.73;;;10.73;;
24751;SDS011;27246;52.376;4.628;2022-07-01T01:51:50;13.88;;;12.38;;
24751;SDS011;27246;52.376;4.628;2022-07-01T01:56:52;13.95;;;12.55;;
24751;SDS011;27246;52.376;4.628;2022-07-01T02:01:54;14.00;;;12.60;;
24751;SDS011;27246;52.376;4.628;2022-07-01T02:06:56;14.68;;;13.15;;
24751;SDS011;27246;52.376;4.628;2022-07-01T02:11:57;14.70;;;12.23;;
24751;SDS011;27246;52.376;4.628;2022-07-01T02:16:59;14.35;;;12.85;;
24751;SDS011;27246;52.376;4.628;2022-07-01T02:22:00;13.30;;;11.90;;
24751;SDS011;27246;52.376;4.628;2022-07-01T02:27:02;15.98;;;13.27;;
24751;SDS011;27246;52.376;4.628;2022-07-01T02:32:04;14.52;;;12.52;;
24751;SDS011;27246;52.376;4.628;2022-07-01T02:37:06;15.15;;;13.00;;
24751;SDS011;27246;52.376;4.628;2022-07-01T02:42:08;16.25;;;12.93;;
24751;SDS011;27246;52.376;4.628;2022-07-01T02:47:24;14.40;;;12.18;;
24751;SDS011;27246;52.376;4.628;2022-07-01T02:52:33;15.40;;;12.13;;
24751;SDS011;27246;52.376;4.628;2022-07-01T02:57:38;13.88;;;12.23;;
24751;SDS011;27246;52.376;4.628;2022-07-01T03:02:43;13.18;;;11.48;;
24751;SDS011;27246;52.376;4.628;2022-07-01T03:07:45;14.45;;;11.77;;
24751;SDS011;27246;52.376;4.628;2022-07-01T03:12:46;14.25;;;11.23;;
24751;SDS011;27246;52.376;4.628;2022-07-01T03:17:48;16.77;;;12.90;;
24751;SDS011;27246;52.376;4.628;2022-07-01T03:22:50;14.23;;;10.98;;
24751;SDS011;27246;52.376;4.628;2022-07-01T03:27:52;13.13;;;11.65;;
24751;SDS011;27246;52.376;4.628;2022-07-01T03:32:53;15.00;;;11.25;;
24751;SDS011;27246;52.376;4.628;2022-07-01T03:37:55;13.90;;;10.63;;
24751;SDS011;27246;52.376;4.628;2022-07-01T03:42:58;11.27;;;9.65;;
24751;SDS011;27246;52.376;4.628;2022-07-01T03:48:00;11.85;;;9.13;;
24751;SDS011;27246;52.376;4.628;2022-07-01T03:53:05;11.88;;;8.98;;
24751;SDS011;27246;52.376;4.628;2022-07-01T03:58:25;10.75;;;9.18;;
24751;SDS011;27246;52.376;4.628;2022-07-01T04:03:27;10.10;;;8.55;;
24751;SDS011;27246;52.376;4.628;2022-07-01T04:08:29;11.50;;;9.38;;
24751;SDS011;27246;52.376;4.628;2022-07-01T04:13:31;11.68;;;8.10;;
24751;SDS011;27246;52.376;4.628;2022-07-01T04:18:33;10.45;;;7.72;;
24751;SDS011;27246;52.376;4.628;2022-07-01T04:23:34;9.73;;;8.25;;
24751;SDS011;27246;52.376;4.628;2022-07-01T04:28:36;11.93;;;7.63;;
24751;SDS011;27246;52.376;4.628;2022-07-01T04:33:38;9.30;;;6.50;;
24751;SDS011;27246;52.376;4.628;2022-07-01T04:38:39;8.45;;;7.07;;
24751;SDS011;27246;52.376;4.628;2022-07-01T04:43:41;7.63;;;6.13;;
24751;SDS011;27246;52.376;4.628;2022-07-01T04:48:43;8.23;;;5.38;;
24751;SDS011;27246;52.376;4.628;2022-07-01T04:53:49;7.50;;;6.07;;
24751;SDS011;27246;52.376;4.628;2022-07-01T04:58:51;7.30;;;5.45;;
24751;SDS011;27246;52.376;4.628;2022-07-01T05:09:20;8.00;;;5.10;;
24751;SDS011;27246;52.376;4.628;2022-07-01T05:14:27;7.35;;;4.70;;
24751;SDS011;27246;52.376;4.628;2022-07-01T05:19:28;6.45;;;4.78;;
24751;SDS011;27246;52.376;4.628;2022-07-01T05:24:49;8.93;;;4.80;;
24751;SDS011;27246;52.376;4.628;2022-07-01T05:29:50;8.20;;;4.55;;
24751;SDS011;27246;52.376;4.628;2022-07-01T05:34:53;7.97;;;5.03;;
24751;SDS011;27246;52.376;4.628;2022-07-01T05:39:55;10.30;;;4.22;;
24751;SDS011;27246;52.376;4.628;2022-07-01T05:44:56;7.70;;;5.55;;
24751;SDS011;27246;52.376;4.628;2022-07-01T05:49:58;6.38;;;4.55;;
24751;SDS011;27246;52.376;4.628;2022-07-01T05:55:00;6.80;;;4.13;;
24751;SDS011;27246;52.376;4.628;2022-07-01T06:00:02;8.00;;;4.30;;
24751;SDS011;27246;52.376;4.628;2022-07-01T06:05:11;10.77;;;5.00;;
24751;SDS011;27246;52.376;4.628;2022-07-01T06:10:15;5.78;;;4.55;;
24751;SDS011;27246;52.376;4.628;2022-07-01T06:15:16;6.55;;;4.22;;
24751;SDS011;27246;52.376;4.628;2022-07-01T06:20:18;6.90;;;4.32;;
24751;SDS011;27246;52.376;4.628;2022-07-01T06:25:20;6.35;;;4.22;;
24751;SDS011;27246;52.376;4.628;2022-07-01T06:30:21;8.55;;;3.80;;
24751;SDS011;27246;52.376;4.628;2022-07-01T06:35:23;7.10;;;4.07;;
24751;SDS011;27246;52.376;4.628;2022-07-01T06:40:25;7.47;;;3.38;;
24751;SDS011;27246;52.376;4.628;2022-07-01T06:45:27;8.32;;;3.15;;
24751;SDS011;27246;52.376;4.628;2022-07-01T06:50:28;6.00;;;2.65;;
24751;SDS011;27246;52.376;4.628;2022-07-01T06:55:30;7.55;;;3.15;;
24751;SDS011;27246;52.376;4.628;2022-07-01T07:00:32;7.68;;;2.22;;
24751;SDS011;27246;52.376;4.628;2022-07-01T07:05:34;4.82;;;1.38;;
24751;SDS011;27246;52.376;4.628;2022-07-01T07:10:35;4.05;;;1.05;;
24751;SDS011;27246;52.376;4.628;2022-07-01T07:15:37;5.32;;;1.67;;
24751;SDS011;27246;52.376;4.628;2022-07-01T07:20:42;3.65;;;1.13;;
24751;SDS011;27246;52.376;4.628;2022-07-01T07:25:45;3.50;;;0.88;;
24751;SDS011;27246;52.376;4.628;2022-07-01T07:30:47;4.30;;;0.63;;
24751;SDS011;27246;52.376;4.628;2022-07-01T07:35:48;2.85;;;0.50;;
24751;SDS011;27246;52.376;4.628;2022-07-01T07:40:51;2.67;;;0.60;;
24751;SDS011;27246;52.376;4.628;2022-07-01T07:45:52;2.17;;;0.55;;
24751;SDS011;27246;52.376;4.628;2022-07-01T07:51:00;1.23;;;0.55;;
24751;SDS011;27246;52.376;4.628;2022-07-01T07:56:07;3.63;;;0.73;;
24751;SDS011;27246;52.376;4.628;2022-07-01T08:01:09;1.75;;;0.95;;
24751;SDS011;27246;52.376;4.628;2022-07-01T08:06:11;2.00;;;0.95;;
24751;SDS011;27246;52.376;4.628;2022-07-01T08:11:13;1.75;;;0.73;;
24751;SDS011;27246;52.376;4.628;2022-07-01T08:16:15;4.70;;;0.60;;
24751;SDS011;27246;52.376;4.628;2022-07-01T08:21:16;1.63;;;0.60;;
24751;SDS011;27246;52.376;4.628;2022-07-01T08:26:18;2.92;;;1.08;;
24751;SDS011;27246;52.376;4.628;2022-07-01T08:31:20;2.67;;;0.70;;
24751;SDS011;27246;52.376;4.628;2022-07-01T08:36:22;5.50;;;0.90;;
24751;SDS011;27246;52.376;4.628;2022-07-01T08:41:23;2.60;;;1.02;;
24751;SDS011;27246;52.376;4.628;2022-07-01T08:46:25;8.48;;;1.33;;
24751;SDS011;27246;52.376;4.628;2022-07-01T08:51:28;5.88;;;1.05;;
24751;SDS011;27246;52.376;4.628;2022-07-01T08:56:30;4.15;;;0.98;;
24751;SDS011;27246;52.376;4.628;2022-07-01T09:01:44;6.85;;;1.02;;
24751;SDS011;27246;52.376;4.628;2022-07-01T09:06:47;3.45;;;1.00;;
24751;SDS011;27246;52.376;4.628;2022-07-01T09:11:50;4.32;;;1.15;;
24751;SDS011;27246;52.376;4.628;2022-07-01T09:16:57;4.32;;;0.98;;
24751;SDS011;27246;52.376;4.628;2022-07-01T09:22:03;3.50;;;0.77;;
24751;SDS011;27246;52.376;4.628;2022-07-01T09:27:07;4.43;;;1.00;;
24751;SDS011;27246;52.376;4.628;2022-07-01T09:32:17;4.80;;;1.15;;
24751;SDS011;27246;52.376;4.628;2022-07-01T09:37:22;2.97;;;0.80;;
24751;SDS011;27246;52.376;4.628;2022-07-01T09:42:26;6.28;;;1.10;;
24751;SDS011;27246;52.376;4.628;2022-07-01T09:47:29;2.72;;;0.68;;
24751;SDS011;27246;52.376;4.628;2022-07-01T09:52:31;4.80;;;1.17;;
24751;SDS011;27246;52.376;4.628;2022-07-01T09:57:37;3.47;;;1.05;;
24751;SDS011;27246;52.376;4.628;2022-07-01T10:02:39;3.03;;;0.75;;
24751;SDS011;27246;52.376;4.628;2022-07-01T10:07:48;3.58;;;1.00;;
24751;SDS011;27246;52.376;4.628;2022-07-01T10:12:59;4.40;;;0.77;;
24751;SDS011;27246;52.376;4.628;2022-07-01T10:18:04;8.23;;;1.05;;
24751;SDS011;27246;52.376;4.628;2022-07-01T10:23:06;3.83;;;0.70;;
24751;SDS011;27246;52.376;4.628;2022-07-01T10:33:30;3.10;;;1.10;;
24751;SDS011;27246;52.376;4.628;2022-07-01T10:38:33;5.40;;;1.85;;
24751;SDS011;27246;52.376;4.628;2022-07-01T10:43:36;2.10;;;1.13;;
24751;SDS011;27246;52.376;4.628;2022-07-01T10:48:39;4.35;;;0.90;;
24751;SDS011;27246;52.376;4.628;2022-07-01T10:53:50;3.67;;;1.00;;
24751;SDS011;27246;52.376;4.628;2022-07-01T10:59:00;5.00;;;0.80;;
24751;SDS011;27246;52.376;4.628;2022-07-01T11:04:03;2.25;;;0.80;;
24751;SDS011;27246;52.376;4.628;2022-07-01T11:09:05;3.35;;;0.82;;
24751;SDS011;27246;52.376;4.628;2022-07-01T11:14:07;5.30;;;1.73;;
24751;SDS011;27246;52.376;4.628;2022-07-01T11:19:09;5.35;;;1.10;;
24751;SDS011;27246;52.376;4.628;2022-07-01T11:24:11;6.20;;;0.90;;
24751;SDS011;27246;52.376;4.628;2022-07-01T11:29:13;4.63;;;0.82;;
24751;SDS011;27246;52.376;4.628;2022-07-01T11:34:16;5.45;;;1.13;;
24751;SDS011;27246;52.376;4.628;2022-07-01T11:39:19;3.95;;;1.80;;
24751;SDS011;27246;52.376;4.628;2022-07-01T11:44:42;6.32;;;1.60;;
24751;SDS011;27246;52.376;4.628;2022-07-01T11:49:45;9.85;;;1.00;;
24751;SDS011;27246;52.376;4.628;2022-07-01T11:54:49;4.18;;;1.00;;
24751;SDS011;27246;52.376;4.628;2022-07-01T11:59:53;1.88;;;0.65;;
24751;SDS011;27246;52.376;4.628;2022-07-01T12:04:56;3.05;;;0.80;;
24751;SDS011;27246;52.376;4.628;2022-07-01T12:10:00;4.43;;;1.27;;
24751;SDS011;27246;52.376;4.628;2022-07-01T12:15:05;3.67;;;1.02;;
24751;SDS011;27246;52.376;4.628;2022-07-01T12:20:14;6.78;;;1.35;;
24751;SDS011;27246;52.376;4.628;2022-07-01T12:25:16;3.35;;;0.75;;
24751;SDS011;27246;52.376;4.628;2022-07-01T12:30:23;3.67;;;1.02;;
24751;SDS011;27246;52.376;4.628;2022-07-01T12:35:25;2.70;;;0.70;;
24751;SDS011;27246;52.376;4.628;2022-07-01T12:40:36;3.25;;;0.98;;
24751;SDS011;27246;52.376;4.628;2022-07-01T12:45:39;4.35;;;1.10;;
24751;SDS011;27246;52.376;4.628;2022-07-01T12:50:41;3.80;;;1.50;;
24751;SDS011;27246;52.376;4.628;2022-07-01T12:55:48;7.30;;;1.15;;
24751;SDS011;27246;52.376;4.628;2022-07-01T13:00:56;4.05;;;0.98;;
24751;SDS011;27246;52.376;4.628;2022-07-01T13:05:59;5.45;;;1.27;;
24751;SDS011;27246;52.376;4.628;2022-07-01T13:11:02;4.97;;;1.23;;
24751;SDS011;27246;52.376;4.628;2022-07-01T13:16:04;6.25;;;1.17;;
24751;SDS011;27246;52.376;4.628;2022-07-01T13:21:06;4.88;;;1.00;;
24751;SDS011;27246;52.376;4.628;2022-07-01T13:26:07;5.60;;;1.20;;
24751;SDS011;27246;52.376;4.628;2022-07-01T13:31:09;2.67;;;1.10;;
24751;SDS011;27246;52.376;4.628;2022-07-01T13:36:13;2.60;;;0.93;;
24751;SDS011;27246;52.376;4.628;2022-07-01T13:41:16;4.55;;;1.25;;
24751;SDS011;27246;52.376;4.628;2022-07-01T13:46:18;3.83;;;0.70;;
24751;SDS011;27246;52.376;4.628;2022-07-01T13:51:20;3.97;;;0.93;;
24751;SDS011;27246;52.376;4.628;2022-07-01T13:56:21;1.67;;;0.60;;
24751;SDS011;27246;52.376;4.628;2022-07-01T14:01:23;3.03;;;0.85;;
24751;SDS011;27246;52.376;4.628;2022-07-01T14:06:25;4.63;;;1.00;;
24751;SDS011;27246;52.376;4.628;2022-07-01T14:11:26;3.75;;;0.40;;
24751;SDS011;27246;52.376;4.628;2022-07-01T14:16:28;1.33;;;0.70;;
24751;SDS011;27246;52.376;4.628;2022-07-01T14:21:31;3.70;;;0.68;;
24751;SDS011;27246;52.376;4.628;2022-07-01T14:26:33;4.95;;;1.00;;
24751;SDS011;27246;52.376;4.628;2022-07-01T14:31:34;1.45;;;0.70;;
24751;SDS011;27246;52.376;4.628;2022-07-01T14:36:36;2.85;;;1.08;;
24751;SDS011;27246;52.376;4.628;2022-07-01T14:41:38;2.70;;;0.80;;
24751;SDS011;27246;52.376;4.628;2022-07-01T14:46:40;3.70;;;0.93;;
24751;SDS011;27246;52.376;4.628;2022-07-01T14:51:41;2.08;;;0.65;;
24751;SDS011;27246;52.376;4.628;2022-07-01T14:56:43;1.17;;;0.68;;
24751;SDS011;27246;52.376;4.628;2022-07-01T15:01:45;2.00;;;0.80;;
24751;SDS011;27246;52.376;4.628;2022-07-01T15:06:47;4.82;;;1.15;;
24751;SDS011;27246;52.376;4.628;2022-07-01T15:11:48;2.72;;;0.50;;
24751;SDS011;27246;52.376;4.628;2022-07-01T15:16:54;1.42;;;0.63;;
24751;SDS011;27246;52.376;4.628;2022-07-01T15:21:56;2.70;;;0.95;;
24751;SDS011;27246;52.376;4.628;2022-07-01T15:26:58;2.13;;;0.73;;
24751;SDS011;27246;52.376;4.628;2022-07-01T15:32:00;3.13;;;0.60;;
24751;SDS011;27246;52.376;4.628;2022-07-01T15:37:03;2.10;;;0.63;;
24751;SDS011;27246;52.376;4.628;2022-07-01T15:42:05;2.15;;;0.60;;
24751;SDS011;27246;52.376;4.628;2022-07-01T15:47:07;2.97;;;0.88;;
24751;SDS011;27246;52.376;4.628;2022-07-01T15:52:27;1.98;;;0.52;;
24751;SDS011;27246;52.376;4.628;2022-07-01T15:57:29;3.20;;;0.60;;
24751;SDS011;27246;52.376;4.628;2022-07-01T16:02:31;2.45;;;0.70;;
24751;SDS011;27246;52.376;4.628;2022-07-01T16:07:33;1.92;;;1.10;;
24751;SDS011;27246;52.376;4.628;2022-07-01T16:12:37;2.13;;;0.75;;
24751;SDS011;27246;52.376;4.628;2022-07-01T16:23:01;2.43;;;0.70;;
24751;SDS011;27246;52.376;4.628;2022-07-01T16:28:04;1.98;;;0.60;;
24751;SDS011;27246;52.376;4.628;2022-07-01T16:33:08;3.65;;;0.95;;
24751;SDS011;27246;52.376;4.628;2022-07-01T16:38:12;2.45;;;0.85;;
24751;SDS011;27246;52.376;4.628;2022-07-01T16:43:16;2.50;;;0.77;;
24751;SDS011;27246;52.376;4.628;2022-07-01T16:48:22;2.67;;;0.90;;
24751;SDS011;27246;52.376;4.628;2022-07-01T16:53:36;3.35;;;1.05;;
24751;SDS011;27246;52.376;4.628;2022-07-01T16:58:43;3.47;;;0.98;;
24751;SDS011;27246;52.376;4.628;2022-07-01T17:08:56;2.47;;;0.80;;
24751;SDS011;27246;52.376;4.628;2022-07-01T17:14:03;5.78;;;1.65;;
24751;SDS011;27246;52.376;4.628;2022-07-01T17:19:07;4.13;;;1.33;;
24751;SDS011;27246;52.376;4.628;2022-07-01T17:24:11;2.78;;;1.10;;
24751;SDS011;27246;52.376;4.628;2022-07-01T17:29:15;4.45;;;1.02;;
24751;SDS011;27246;52.376;4.628;2022-07-01T17:34:25;2.20;;;0.80;;
24751;SDS011;27246;52.376;4.628;2022-07-01T17:39:36;7.85;;;1.58;;
24751;SDS011;27246;52.376;4.628;2022-07-01T17:44:38;2.08;;;0.93;;
24751;SDS011;27246;52.376;4.628;2022-07-01T17:49:42;3.13;;;1.00;;
24751;SDS011;27246;52.376;4.628;2022-07-01T18:00:20;1.70;;;1.20;;
24751;SDS011;27246;52.376;4.628;2022-07-01T18:05:21;3.58;;;0.98;;
24751;SDS011;27246;52.376;4.628;2022-07-01T18:10:41;3.63;;;0.90;;
24751;SDS011;27246;52.376;4.628;2022-07-01T18:15:46;2.53;;;0.90;;
24751;SDS011;27246;52.376;4.628;2022-07-01T18:20:52;2.30;;;0.98;;
24751;SDS011;27246;52.376;4.628;2022-07-01T18:25:58;2.25;;;0.73;;
24751;SDS011;27246;52.376;4.628;2022-07-01T18:31:02;2.33;;;0.55;;
24751;SDS011;27246;52.376;4.628;2022-07-01T18:36:08;2.38;;;0.43;;
24751;SDS011;27246;52.376;4.628;2022-07-01T18:41:10;2.15;;;0.70;;
24751;SDS011;27246;52.376;4.628;2022-07-01T18:46:11;1.80;;;0.80;;
24751;SDS011;27246;52.376;4.628;2022-07-01T18:51:13;2.20;;;0.75;;
24751;SDS011;27246;52.376;4.628;2022-07-01T18:56:15;2.38;;;0.73;;
24751;SDS011;27246;52.376;4.628;2022-07-01T19:01:17;2.80;;;0.82;;
24751;SDS011;27246;52.376;4.628;2022-07-01T19:06:18;4.15;;;1.10;;
24751;SDS011;27246;52.376;4.628;2022-07-01T19:11:20;3.42;;;0.85;;
24751;SDS011;27246;52.376;4.628;2022-07-01T19:16:22;4.40;;;1.30;;
24751;SDS011;27246;52.376;4.628;2022-07-01T19:21:24;5.68;;;1.17;;
24751;SDS011;27246;52.376;4.628;2022-07-01T19:26:26;3.58;;;1.05;;
24751;SDS011;27246;52.376;4.628;2022-07-01T19:31:28;5.45;;;1.20;;
24751;SDS011;27246;52.376;4.628;2022-07-01T19:36:30;7.05;;;0.93;;
24751;SDS011;27246;52.376;4.628;2022-07-01T19:41:32;6.20;;;1.45;;
24751;SDS011;27246;52.376;4.628;2022-07-01T19:46:34;4.90;;;1.00;;
24751;SDS011;27246;52.376;4.628;2022-07-01T19:51:37;2.65;;;0.90;;
24751;SDS011;27246;52.376;4.628;2022-07-01T19:56:39;3.45;;;1.27;;
24751;SDS011;27246;52.376;4.628;2022-07-01T20:01:41;2.20;;;0.85;;
24751;SDS011;27246;52.376;4.628;2022-07-01T20:06:43;2.90;;;0.73;;
24751;SDS011;27246;52.376;4.628;2022-07-01T20:11:45;3.53;;;0.90;;
24751;SDS011;27246;52.376;4.628;2022-07-01T20:16:47;6.90;;;1.25;;
24751;SDS011;27246;52.376;4.628;2022-07-01T20:21:49;4.55;;;0.80;;
24751;SDS011;27246;52.376;4.628;2022-07-01T20:26:53;3.63;;;0.90;;
24751;SDS011;27246;52.376;4.628;2022-07-01T20:31:56;4.60;;;1.17;;
24751;SDS011;27246;52.376;4.628;2022-07-01T20:36:57;3.28;;;1.67;;
24751;SDS011;27246;52.376;4.628;2022-07-01T20:41:59;4.53;;;1.85;;
24751;SDS011;27246;52.376;4.628;2022-07-01T20:47:00;2.63;;;1.35;;
24751;SDS011;27246;52.376;4.628;2022-07-01T20:52:02;5.07;;;1.48;;
24751;SDS011;27246;52.376;4.628;2022-07-01T20:57:04;3.55;;;1.40;;
24751;SDS011;27246;52.376;4.628;2022-07-01T21:02:07;5.25;;;1.20;;
24751;SDS011;27246;52.376;4.628;2022-07-01T21:07:29;4.30;;;1.08;;
24751;SDS011;27246;52.376;4.628;2022-07-01T21:12:30;4.07;;;1.55;;
24751;SDS011;27246;52.376;4.628;2022-07-01T21:17:32;4.38;;;1.20;;
24751;SDS011;27246;52.376;4.628;2022-07-01T21:22:34;2.42;;;0.95;;
24751;SDS011;27246;52.376;4.628;2022-07-01T21:27:37;4.93;;;1.33;;
24751;SDS011;27246;52.376;4.628;2022-07-01T21:32:40;4.03;;;1.40;;
24751;SDS011;27246;52.376;4.628;2022-07-01T21:37:42;4.53;;;1.00;;
24751;SDS011;27246;52.376;4.628;2022-07-01T21:42:44;3.42;;;1.30;;
24751;SDS011;27246;52.376;4.628;2022-07-01T21:47:47;3.50;;;1.35;;
24751;SDS011;27246;52.376;4.628;2022-07-01T21:52:49;2.65;;;1.52;;
24751;SDS011;27246;52.376;4.628;2022-07-01T21:57:52;8.95;;;1.20;;
24751;SDS011;27246;52.376;4.628;2022-07-01T22:02:54;2.50;;;0.90;;
24751;SDS011;27246;52.376;4.628;2022-07-01T22:07:56;3.90;;;1.00;;
24751;SDS011;27246;52.376;4.628;2022-07-01T22:12:58;5.85;;;2.08;;
24751;SDS011;27246;52.376;4.628;2022-07-01T22:18:00;6.53;;;3.60;;
24751;SDS011;27246;52.376;4.628;2022-07-01T22:23:04;6.82;;;2.30;;
24751;SDS011;27246;52.376;4.628;2022-07-01T22:28:08;3.83;;;1.25;;
24751;SDS011;27246;52.376;4.628;2022-07-01T22:33:10;6.38;;;1.58;;
24751;SDS011;27246;52.376;4.628;2022-07-01T22:38:13;2.70;;;1.17;;
24751;SDS011;27246;52.376;4.628;2022-07-01T22:43:17;6.95;;;1.13;;
24751;SDS011;27246;52.376;4.628;2022-07-01T22:48:25;4.30;;;1.30;;
24751;SDS011;27246;52.376;4.628;2022-07-01T22:53:42;3.13;;;1.17;;
24751;SDS011;27246;52.376;4.628;2022-07-01T23:04:02;6.40;;;1.88;;
24751;SDS011;27246;52.376;4.628;2022-07-01T23:09:04;5.75;;;1.95;;
24751;SDS011;27246;52.376;4.628;2022-07-01T23:14:15;5.28;;;1.52;;
24751;SDS011;27246;52.376;4.628;2022-07-01T23:19:41;3.05;;;1.60;;
24751;SDS011;27246;52.376;4.628;2022-07-01T23:24:42;4.80;;;2.10;;
24751;SDS011;27246;52.376;4.628;2022-07-01T23:29:48;7.88;;;2.60;;
24751;SDS011;27246;52.376;4.628;2022-07-01T23:34:51;2.97;;;1.70;;
24751;SDS011;27246;52.376;4.628;2022-07-01T23:39:54;3.72;;;1.92;;
24751;SDS011;27246;52.376;4.628;2022-07-01T23:44:59;6.97;;;2.10;;
24751;SDS011;27246;52.376;4.628;2022-07-01T23:50:00;3.00;;;1.80;;
24751;SDS011;27246;52.376;4.628;2022-07-01T23:55:03;5.47;;;1.85;;
